KSEAKBLI

Guest
Details From KSEA - Seattle Tacoma Intl
To KBLI - BELLINGHAM INTL
Flight Number -
Tags decoded
Created
Modified
Stats Distance 82 nm / 151 km
Max Altitude 0 ft / 0 m
Waypoints 4
Social Downloads 2
Likes 0
Share VATSIM

Download

Looking for another format? Having issues loading an existing format? Contact us
Advertisement - Login to hide

Notes

Requested: KSEA PAE MADEE KBLI

Route

KSEA PAE MADEE KBLI

ID Type Via Altitude Latitude Longitude Leg Dist Tot Dist Heading (true) Name
O KSEA APT - 0 ft / 0 m 47.45019˚ -122.31232˚ - 0 nm - Seattle Tacoma Intl
PAE VOR - 0 ft / 0 m 47.91983˚ -122.27783˚ 28 nm 28 nm 3° / 3° PAINE VOR-DME
MADEE FIX - 0 ft / 0 m 48.34492˚ -122.40134˚ 26 nm 54 nm 349° / 349° -
O KBLI APT - 0 ft / 0 m 48.79261˚ -122.53753˚ 27 nm 81 nm 349° / 349° BELLINGHAM INTL

Altitude Profile

Advertisement - Login to hide

KSEA

Details ICAO KSEA (SEA)
Name Seattle Tacoma Intl
Region United States
Timezone America/Los_Angeles (UTC-7.0)
Stats Elevation 433 ft / 132 m (AMSL)
Location 47.450188° -122.312320°
Runways 3
Magnetic Variation 15.634° E

METAR

KSEA 251602Z 36010KT 10SM SCT250 15/06 A3012 RMK AO2 T01500056

Decode

TAF

TAF AMD KSEA 251501Z 2515/2618 03013KT P6SM SCT250 FM251900 34010KT P6SM SKC FM260400 02010KT P6SM SKC

Decode

Departure Runways

ID Width Length Bearing (true) Bearing (mag) Surface Threshold Offset Overrun Length
16C 151 ft / 46 m 9,429 ft / 2,874 m 180.34° 164.71° Concrete 0 ft / 0 m 223 ft / 68 m
16L 151 ft / 46 m 11,904 ft / 3,628 m 180.34° 164.71° Concrete 0 ft / 0 m 151 ft / 46 m
16R 151 ft / 46 m 8,503 ft / 2,592 m 180.34° 164.71° Concrete 0 ft / 0 m 164 ft / 50 m
34C 151 ft / 46 m 9,429 ft / 2,874 m 0.34° 344.71° Concrete 0 ft / 0 m 394 ft / 120 m
34L 151 ft / 46 m 8,503 ft / 2,592 m 0.34° 344.71° Concrete 0 ft / 0 m 394 ft / 120 m
34R 151 ft / 46 m 11,904 ft / 3,628 m 0.34° 344.71° Concrete 0 ft / 0 m 400 ft / 122 m

KBLI

Details ICAO KBLI (BLI)
Name BELLINGHAM INTL
Region United States
Timezone America/Los_Angeles (UTC-7.0)
Stats Elevation 170 ft / 52 m (AMSL)
Location 48.792615° -122.537535°
Runways 1
Magnetic Variation 15.998° E

METAR

KBLI 251553Z 34006KT 10SM CLR 14/06 A3014 RMK AO2 SLP213 T01390056

Decode

TAF

TAF KBLI 251126Z 2512/2612 VRB03KT P6SM SCT200 FM252000 30007KT P6SM SCT200 FM260600 18004KT P6SM SCT200

Decode

Destination Runways

ID Width Length Bearing (true) Bearing (mag) Surface Threshold Offset Overrun Length
16 151 ft / 46 m 6,755 ft / 2,059 m 179.88° 163.88° Asphalt 0 ft / 0 m 0 ft / 0 m
34 151 ft / 46 m 6,755 ft / 2,059 m 359.88° 343.88° Asphalt 0 ft / 0 m 0 ft / 0 m

Approach Navaids

Runway Type Ident Frequency Range Bearing (true) Bearing (mag) Slope Elevation
16 Localiser IBLI 108.50 MHz 18 nm / 33 km 179.83° 163.83° - 152 ft / 46 m (AMSL)
16 Glidescope IBLI 108.50 MHz 10 nm / 19 km 179.88° 163.88° 3.00° 154 ft / 47 m (AMSL)

Popular Alternatives